Time;durP1;ratioP1;P1;durP2;ratioP2;P2;SDS_P1;SDS_P2;PMS_P1;PMS_P2;Temp;Humidity;BMP_temperature;BMP_pressure;BME280_temperature;BME280_humidity;BME280_pressure;Samples;Min_cycle;Max_cycle;Signal;HPM_P1;HPM_P2
2022/05/20 00:02:13;;;;;;;4.30;3.42;;;;;;;19.22;67.58;99317.25;5063619;28;20158;-76
2022/05/20 00:04:38;;;;;;;4.25;3.40;;;;;;;19.21;67.97;99322.97;5062954;28;20036;-77
2022/05/20 00:07:04;;;;;;;3.97;3.28;;;;;;;19.21;67.97;99317.56;5068582;28;20600;-78
2022/05/20 00:09:30;;;;;;;4.80;3.72;;;;;;;19.15;67.43;99308.72;5067525;28;20028;-77
2022/05/20 00:11:55;;;;;;;4.82;3.10;;;;;;;19.17;67.74;99317.34;5064166;28;20086;-78
2022/05/20 00:14:20;;;;;;;4.10;2.92;;;;;;;19.15;67.84;99327.69;5069405;28;20032;-78
2022/05/20 00:16:46;;;;;;;4.85;3.78;;;;;;;19.15;67.85;99319.56;5066605;28;20091;-77
2022/05/20 00:19:12;;;;;;;6.93;3.78;;;;;;;19.08;68.02;99327.22;5063102;28;20024;-78
2022/05/20 00:21:37;;;;;;;6.00;3.10;;;;;;;19.06;67.82;99329.41;5048071;28;20024;-78
2022/05/20 00:24:03;;;;;;;4.15;3.20;;;;;;;19.01;68.18;99323.25;5069738;28;20036;-78
2022/05/20 00:26:29;;;;;;;5.22;3.45;;;;;;;19.00;68.03;99319.75;5073103;28;20025;-78
2022/05/20 00:28:55;;;;;;;4.63;2.72;;;;;;;19.00;67.84;99322.44;5072508;28;20436;-78
2022/05/20 00:31:23;;;;;;;3.40;3.05;;;;;;;18.98;68.19;99324.63;5071475;28;20501;-78
2022/05/20 00:33:48;;;;;;;3.58;3.17;;;;;;;18.96;67.96;99317.94;5069165;28;20032;-78
2022/05/20 00:36:14;;;;;;;6.38;2.90;;;;;;;18.96;67.88;99320.66;5067097;28;20029;-78
2022/05/20 00:38:40;;;;;;;4.18;2.60;;;;;;;18.94;67.91;99320.09;5072314;28;20052;-78
2022/05/20 00:41:07;;;;;;;3.58;3.28;;;;;;;18.89;68.13;99315.59;5070428;28;20029;-78
2022/05/20 00:43:32;;;;;;;4.50;3.15;;;;;;;18.88;67.77;99324.78;5060225;28;20029;-77
2022/05/20 00:46:04;;;;;;;3.93;3.27;;;;;;;18.89;68.20;99322.91;5071620;28;20032;-78
2022/05/20 00:48:30;;;;;;;3.20;2.97;;;;;;;18.82;67.84;99323.25;5069057;28;20764;-78
2022/05/20 00:51:13;;;;;;;4.35;3.05;;;;;;;18.85;67.50;99314.53;5066072;28;20028;-77
2022/05/20 00:53:49;;;;;;;2.83;2.60;;;;;;;18.82;67.96;99317.84;5064434;28;20032;-77
2022/05/20 00:56:19;;;;;;;4.95;3.00;;;;;;;18.77;68.10;99312.50;5060806;28;20052;-77
2022/05/20 00:58:45;;;;;;;3.38;2.90;;;;;;;18.76;67.87;99312.78;5063045;28;20600;-78
2022/05/20 01:01:10;;;;;;;2.85;2.65;;;;;;;18.74;68.05;99321.16;5067390;28;20036;-77
2022/05/20 01:03:37;;;;;;;3.33;3.03;;;;;;;18.77;67.95;99308.97;5067524;28;20067;-77
2022/05/20 01:06:03;;;;;;;4.55;3.17;;;;;;;18.74;68.01;99314.97;5066222;28;20013;-77
2022/05/20 01:08:32;;;;;;;4.90;2.80;;;;;;;18.75;68.06;99317.38;5065042;28;20522;-77
2022/05/20 01:10:58;;;;;;;3.50;3.05;;;;;;;18.72;68.05;99319.88;5065794;28;20020;-77
2022/05/20 01:13:27;;;;;;;4.97;3.08;;;;;;;18.71;68.25;99316.38;5067691;28;20023;-77
2022/05/20 01:15:54;;;;;;;3.25;2.95;;;;;;;18.75;68.58;99330.09;5061624;28;20032;-78
2022/05/20 01:18:20;;;;;;;3.67;3.20;;;;;;;18.73;68.07;99325.00;5047894;28;20037;-78
2022/05/20 01:20:49;;;;;;;2.97;2.67;;;;;;;18.79;68.19;99321.13;5065799;28;20035;-77
2022/05/20 01:23:20;;;;;;;3.80;2.95;;;;;;;18.78;68.03;99324.94;5066382;28;20029;-78
2022/05/20 01:25:51;;;;;;;3.72;3.00;;;;;;;18.80;68.59;99314.63;5062590;28;20025;-78
2022/05/20 01:28:18;;;;;;;6.60;2.90;;;;;;;18.80;68.21;99319.22;5067240;28;20395;-78
2022/05/20 01:30:50;;;;;;;4.85;3.13;;;;;;;18.85;67.99;99313.75;5060261;28;20056;-78
2022/05/20 01:33:43;;;;;;;4.97;3.22;;;;;;;18.86;68.29;99324.28;5063805;28;20070;-77
2022/05/20 01:36:13;;;;;;;4.82;3.30;;;;;;;18.90;68.00;99322.59;5054960;28;20045;-77
2022/05/20 01:38:39;;;;;;;4.93;3.30;;;;;;;18.91;68.24;99320.69;5068244;28;20036;-76
2022/05/20 01:41:09;;;;;;;5.90;3.38;;;;;;;18.94;67.91;99326.31;5064930;28;20074;-76
2022/05/20 01:43:53;;;;;;;5.60;3.08;;;;;;;18.93;68.34;99323.91;5062997;28;20035;-76
2022/05/20 01:46:30;;;;;;;7.72;3.58;;;;;;;18.99;68.14;99326.25;5067231;28;20029;-77
2022/05/20 01:49:33;;;;;;;3.97;3.55;;;;;;;18.98;68.35;99318.44;5065165;28;20029;-78
2022/05/20 01:52:10;;;;;;;6.35;3.65;;;;;;;19.05;68.20;99318.88;5064635;28;20548;-77
2022/05/20 01:54:59;;;;;;;3.67;3.38;;;;;;;19.03;68.25;99321.88;5069987;28;20024;-77
2022/05/20 01:57:36;;;;;;;4.47;3.80;;;;;;;19.05;67.89;99319.69;5065924;28;20028;-76
2022/05/20 02:00:08;;;;;;;4.03;3.35;;;;;;;19.08;67.79;99319.09;5062388;28;20021;-76
2022/05/20 02:02:48;;;;;;;3.95;3.65;;;;;;;19.09;68.55;99323.41;5069569;28;20098;-77
2022/05/20 02:05:24;;;;;;;5.07;3.60;;;;;;;19.04;68.25;99315.38;5071523;28;20027;-77
2022/05/20 02:07:56;;;;;;;7.10;3.22;;;;;;;19.13;68.24;99312.81;5070398;28;20058;-77
2022/05/20 02:10:31;;;;;;;3.75;3.22;;;;;;;19.15;68.18;99305.22;5055707;28;20427;-78
2022/05/20 02:13:00;;;;;;;5.13;3.38;;;;;;;19.16;67.74;99307.63;5062342;28;20094;-77
2022/05/20 02:15:32;;;;;;;3.83;3.45;;;;;;;19.13;68.06;99302.78;5066576;28;20024;-77
2022/05/20 02:18:02;;;;;;;5.25;4.07;;;;;;;19.18;68.18;99312.72;5065665;28;20029;-77
2022/05/20 02:20:36;;;;;;;5.10;3.20;;;;;;;19.13;67.88;99302.78;5065941;28;20060;-76
2022/05/20 02:23:07;;;;;;;5.97;3.70;;;;;;;19.09;67.93;99306.38;5059564;28;20020;-77
2022/05/20 02:25:37;;;;;;;5.93;3.72;;;;;;;19.16;67.99;99312.22;5064999;28;20068;-77
2022/05/20 02:28:41;;;;;;;4.53;3.30;;;;;;;19.15;67.87;99306.03;5068654;28;20036;-76
2022/05/20 02:31:11;;;;;;;4.30;3.72;;;;;;;19.05;68.39;99314.28;5063900;28;20059;-78
2022/05/20 02:33:37;;;;;;;5.88;3.75;;;;;;;19.11;68.24;99309.59;5066302;28;20043;-75
2022/05/20 02:36:18;;;;;;;4.50;3.40;;;;;;;19.16;68.16;99318.44;5055808;28;20029;-75
2022/05/20 02:38:43;;;;;;;6.65;4.25;;;;;;;19.15;68.14;99314.13;5058770;28;20028;-76
2022/05/20 02:41:09;;;;;;;3.50;3.20;;;;;;;19.14;68.22;99323.34;5024293;28;20032;-75
2022/05/20 02:43:34;;;;;;;3.58;3.28;;;;;;;19.13;68.20;99329.84;5060788;28;20033;-75
2022/05/20 02:46:00;;;;;;;5.22;3.60;;;;;;;19.15;68.35;99330.38;5061066;28;20024;-78
2022/05/20 02:48:26;;;;;;;3.67;3.38;;;;;;;19.09;68.41;99339.63;5064246;28;20028;-78
2022/05/20 02:50:51;;;;;;;5.72;3.83;;;;;;;19.12;68.26;99336.38;5052594;28;20536;-78
2022/05/20 02:53:18;;;;;;;4.97;3.85;;;;;;;19.16;68.47;99336.56;5065557;28;20067;-78
2022/05/20 02:55:43;;;;;;;4.93;4.30;;;;;;;19.14;68.67;99333.34;5069334;28;20025;-78
2022/05/20 03:04:09;;;;;;;4.05;3.65;;;;;;;19.12;68.57;99333.66;5068674;28;20032;-77
2022/05/20 03:04:10;;;;;;;4.93;4.47;;;;;;;19.17;68.65;99344.41;5036065;28;20044;-78
2022/05/20 03:06:48;;;;;;;4.22;3.83;;;;;;;19.14;68.48;99336.06;5065428;28;20115;-78
2022/05/20 03:09:16;;;;;;;6.72;4.43;;;;;;;19.14;68.83;99341.47;5066480;28;20029;-78
2022/05/20 03:11:42;;;;;;;7.22;4.50;;;;;;;19.15;68.41;99337.69;5068275;28;20063;-76
2022/05/20 03:14:09;;;;;;;5.05;4.55;;;;;;;19.15;68.24;99340.41;5067296;28;20047;-76
2022/05/20 03:16:37;;;;;;;4.40;3.80;;;;;;;19.13;68.21;99346.06;5064201;28;20038;-77
2022/05/20 03:19:03;;;;;;;3.80;3.40;;;;;;;19.14;68.25;99363.13;5057765;28;20119;-77
2022/05/20 03:21:28;;;;;;;5.43;4.25;;;;;;;19.13;68.70;99362.31;5058312;28;20068;-77
2022/05/20 03:23:53;;;;;;;4.88;4.40;;;;;;;19.12;68.70;99355.31;5063446;28;20430;-77
2022/05/20 03:26:20;;;;;;;5.32;4.40;;;;;;;19.12;68.37;99357.19;5065652;28;20569;-77
2022/05/20 03:28:46;;;;;;;7.35;4.95;;;;;;;19.09;68.34;99355.88;5063339;28;20036;-77
2022/05/20 03:31:12;;;;;;;6.30;4.93;;;;;;;19.08;68.61;99350.78;5059457;28;20025;-77
2022/05/20 03:33:40;;;;;;;5.38;4.80;;;;;;;19.10;68.72;99356.69;5066957;28;20033;-77
2022/05/20 03:36:06;;;;;;;7.45;5.13;;;;;;;19.12;68.83;99355.31;5064392;28;20107;-77
2022/05/20 03:38:32;;;;;;;5.80;5.30;;;;;;;19.12;68.58;99354.50;5062797;28;20025;-77
2022/05/20 03:40:57;;;;;;;5.75;5.22;;;;;;;19.13;68.29;99350.72;5062510;28;20024;-77
2022/05/20 03:43:23;;;;;;;6.05;5.40;;;;;;;19.12;68.48;99349.09;5062231;28;20461;-77
2022/05/20 03:45:51;;;;;;;5.28;4.78;;;;;;;19.09;68.96;99355.88;5065910;28;20020;-78
2022/05/20 03:48:16;;;;;;;6.80;5.47;;;;;;;19.09;68.88;99355.88;5048129;28;20036;-77
2022/05/20 03:50:41;;;;;;;8.25;4.80;;;;;;;19.10;68.48;99356.69;5071041;28;20028;-77
2022/05/20 03:53:07;;;;;;;7.28;6.03;;;;;;;19.09;68.36;99358.59;5070556;28;20501;-80
2022/05/20 03:55:32;;;;;;;8.68;5.22;;;;;;;19.05;68.89;99354.84;5074658;28;20031;-80
2022/05/20 03:57:58;;;;;;;7.28;5.18;;;;;;;19.09;68.85;99357.81;5052496;28;20037;-75
2022/05/20 04:00:23;;;;;;;9.63;6.15;;;;;;;19.08;68.45;99358.88;5068530;28;20047;-76
2022/05/20 04:02:48;;;;;;;6.90;6.20;;;;;;;19.09;68.46;99355.88;5069533;28;20486;-76
2022/05/20 04:05:13;;;;;;;6.05;5.07;;;;;;;19.07;68.93;99354.56;5064742;28;20036;-76
2022/05/20 04:07:39;;;;;;;6.13;5.43;;;;;;;19.07;68.81;99358.06;5050538;28;20036;-75
2022/05/20 04:10:09;;;;;;;8.40;5.53;;;;;;;19.08;69.01;99365.09;5070789;28;20109;-75
2022/05/20 04:12:42;;;;;;;10.32;6.53;;;;;;;19.03;69.46;99357.06;5059110;28;20036;-79
2022/05/20 04:15:12;;;;;;;8.05;6.35;;;;;;;19.09;69.48;99361.28;5068861;28;20035;-78
2022/05/20 04:17:37;;;;;;;9.73;6.00;;;;;;;19.09;69.15;99364.00;5062987;28;20032;-75
2022/05/20 04:20:05;;;;;;;9.02;6.57;;;;;;;19.06;69.29;99361.88;5066193;28;20040;-75
2022/05/20 04:22:32;;;;;;;7.78;6.97;;;;;;;19.06;68.97;99355.66;5056823;28;20035;-78
2022/05/20 04:24:58;;;;;;;6.40;5.70;;;;;;;19.10;69.65;99356.69;5070673;28;20444;-75
2022/05/20 04:27:27;;;;;;;7.57;6.50;;;;;;;19.06;69.32;99359.19;5066687;28;20033;-75
2022/05/20 04:29:52;;;;;;;9.13;6.63;;;;;;;19.11;69.66;99361.81;5066254;28;20028;-76
2022/05/20 04:32:18;;;;;;;20.08;15.45;;;;;;;19.09;72.18;99357.81;5067164;28;20047;-75
2022/05/20 04:34:43;;;;;;;19.70;16.33;;;;;;;19.12;73.33;99360.72;5065286;28;20029;-76
2022/05/20 04:37:08;;;;;;;21.45;17.17;;;;;;;19.07;73.78;99363.47;5063603;28;20048;-76
2022/05/20 04:39:34;;;;;;;23.95;17.75;;;;;;;19.06;74.10;99358.38;5063979;28;20024;-76
2022/05/20 04:47:30;;;;;;;20.73;15.38;;;;;;;18.77;74.52;99353.06;5065302;28;20024;-76
2022/05/20 04:49:55;;;;;;;19.40;15.13;;;;;;;18.77;74.19;99358.47;5064491;28;20078;-75
2022/05/20 04:52:21;;;;;;;19.45;14.82;;;;;;;18.86;73.20;99347.81;5065707;28;20482;-76
2022/05/20 04:54:50;;;;;;;16.25;14.48;;;;;;;18.91;72.69;99348.56;5065446;28;20508;-76
2022/05/20 04:57:18;;;;;;;17.20;13.60;;;;;;;18.94;72.54;99350.66;5071691;28;20033;-76
2022/05/20 04:59:43;;;;;;;15.80;14.13;;;;;;;18.97;72.44;99366.34;5071464;28;20096;-76
2022/05/20 05:02:08;;;;;;;14.38;12.63;;;;;;;19.01;72.25;99363.84;5067880;28;20124;-76
2022/05/20 05:04:33;;;;;;;17.35;13.05;;;;;;;19.07;72.05;99357.25;5060341;28;20502;-75
2022/05/20 05:06:59;;;;;;;17.55;11.73;;;;;;;19.07;71.76;99357.25;5063419;28;20032;-76
2022/05/20 05:09:25;;;;;;;14.55;12.13;;;;;;;19.05;71.45;99357.56;5069762;28;20123;-76
2022/05/20 05:11:51;;;;;;;17.95;11.50;;;;;;;19.09;71.64;99355.88;5071198;28;20021;-76
2022/05/20 05:14:16;;;;;;;12.05;10.73;;;;;;;19.11;71.42;99361.03;5065957;28;20029;-76
2022/05/20 05:16:43;;;;;;;14.70;11.07;;;;;;;19.15;71.12;99370.16;5073156;28;20110;-76
2022/05/20 05:19:09;;;;;;;15.15;10.90;;;;;;;19.20;71.06;99361.94;5071287;28;20118;-76
2022/05/20 05:21:35;;;;;;;11.65;10.23;;;;;;;19.23;71.31;99348.66;5071702;28;20035;-76
2022/05/20 05:24:01;;;;;;;13.48;11.43;;;;;;;19.26;71.20;99358.88;5070447;28;20032;-76
2022/05/20 05:26:31;;;;;;;11.68;10.07;;;;;;;19.26;70.85;99353.47;5070317;28;20071;-76
2022/05/20 05:28:56;;;;;;;14.82;10.75;;;;;;;19.29;71.19;99347.47;5066861;28;20028;-75
2022/05/20 05:31:22;;;;;;;11.50;10.38;;;;;;;19.30;71.03;99342.88;5059183;28;20059;-76
2022/05/20 05:33:49;;;;;;;13.23;10.90;;;;;;;19.33;70.81;99345.00;5062108;28;20487;-76
2022/05/20 05:36:15;;;;;;;11.77;10.23;;;;;;;19.33;70.82;99351.22;5067783;28;20040;-76
2022/05/20 05:38:42;;;;;;;13.90;10.07;;;;;;;19.38;70.60;99347.66;5040440;28;20028;-76
2022/05/20 05:41:10;;;;;;;10.13;9.13;;;;;;;19.39;70.24;99365.53;5059952;28;20025;-76
2022/05/20 05:43:35;;;;;;;10.57;9.48;;;;;;;19.42;70.53;99378.47;5064043;28;20063;-75
2022/05/20 05:46:00;;;;;;;10.70;9.35;;;;;;;19.46;70.38;99378.69;5067452;28;20047;-76
2022/05/20 05:48:27;;;;;;;11.52;9.90;;;;;;;19.48;70.19;99377.31;5069475;28;20532;-75
2022/05/20 05:50:52;;;;;;;9.88;8.98;;;;;;;19.47;69.60;99370.28;5063134;28;20097;-76
2022/05/20 05:53:20;;;;;;;12.43;10.57;;;;;;;19.53;69.82;99371.78;5065783;28;20433;-76
2022/05/20 05:55:49;;;;;;;12.20;10.45;;;;;;;19.56;70.16;99375.81;5062547;28;20171;-76
2022/05/20 05:58:15;;;;;;;11.57;10.40;;;;;;;19.58;70.10;99373.63;5064706;28;20025;-77
2022/05/20 06:00:42;;;;;;;12.02;10.77;;;;;;;19.60;69.65;99371.41;5067594;28;20016;-77
2022/05/20 06:03:08;;;;;;;11.50;9.98;;;;;;;19.62;70.04;99367.31;5065036;28;20033;-76
2022/05/20 06:05:34;;;;;;;11.82;10.63;;;;;;;19.63;69.62;99365.44;5068806;28;20035;-75
2022/05/20 06:08:01;;;;;;;14.82;12.43;;;;;;;19.73;69.85;99370.69;5056975;28;20028;-76
2022/05/20 06:10:27;;;;;;;14.82;13.32;;;;;;;19.78;69.78;99359.75;5059979;28;20028;-76
2022/05/20 06:12:55;;;;;;;13.98;12.57;;;;;;;19.76;69.67;99354.66;5059257;28;20482;-76
2022/05/20 06:15:22;;;;;;;17.05;13.38;;;;;;;19.78;69.67;99357.06;5063053;28;20033;-76
2022/05/20 06:17:49;;;;;;;15.48;13.55;;;;;;;19.75;69.33;99350.31;5062255;28;20055;-76
2022/05/20 06:20:14;;;;;;;14.27;12.85;;;;;;;19.76;69.47;99343.00;5063081;28;20049;-76
2022/05/20 06:22:40;;;;;;;14.15;12.65;;;;;;;19.76;69.10;99345.72;5058682;28;20037;-76
2022/05/20 06:25:05;;;;;;;15.60;14.00;;;;;;;19.79;69.26;99351.34;5062583;28;20032;-76
2022/05/20 06:27:32;;;;;;;14.70;12.02;;;;;;;19.79;69.15;99355.97;5063845;28;20033;-75
2022/05/20 06:29:57;;;;;;;13.40;11.85;;;;;;;19.82;69.05;99339.09;5060117;28;20555;-76
2022/05/20 06:32:23;;;;;;;13.27;11.85;;;;;;;19.87;69.06;99339.84;5061793;28;20029;-76
2022/05/20 06:40:24;;;;;;;11.57;10.48;;;;;;;19.99;69.02;99336.63;5061699;28;20565;-76
2022/05/20 06:42:49;;;;;;;11.27;10.07;;;;;;;20.02;68.85;99349.59;5061845;28;20033;-76
2022/05/20 06:45:16;;;;;;;15.30;13.40;;;;;;;19.99;69.04;99342.88;5060256;28;20021;-75
2022/05/20 06:47:42;;;;;;;12.57;11.13;;;;;;;20.06;69.33;99340.59;5062733;28;20024;-75
2022/05/20 06:50:10;;;;;;;19.27;16.20;;;;;;;20.09;69.42;99345.38;5068480;28;20105;-76
2022/05/20 06:52:35;;;;;;;16.65;13.65;;;;;;;20.10;69.25;99348.91;5066041;28;20036;-76
2022/05/20 06:55:00;;;;;;;14.82;12.93;;;;;;;20.15;69.00;99355.06;5066322;28;20024;-75
2022/05/20 06:57:26;;;;;;;14.32;12.82;;;;;;;20.14;68.92;99339.06;5057731;28;20033;-76
2022/05/20 06:59:52;;;;;;;14.70;13.23;;;;;;;20.16;68.93;99342.28;5071219;28;20043;-75
2022/05/20 07:02:18;;;;;;;18.98;16.98;;;;;;;20.20;69.29;99332.47;5069573;28;20036;-76
2022/05/20 07:04:44;;;;;;;18.50;16.00;;;;;;;20.22;69.44;99335.72;5069839;28;20032;-76
2022/05/20 07:07:09;;;;;;;18.80;15.98;;;;;;;20.24;69.37;99328.09;5043414;28;20033;-75
2022/05/20 07:09:35;;;;;;;19.38;16.80;;;;;;;20.22;70.02;99327.59;5067331;28;20074;-75
2022/05/20 07:12:00;;;;;;;19.80;17.63;;;;;;;20.29;70.38;99319.84;5069274;28;20028;-75
2022/05/20 07:14:26;;;;;;;20.63;17.77;;;;;;;20.33;71.33;99326.31;5050336;28;20033;-75
2022/05/20 07:16:51;;;;;;;22.60;20.02;;;;;;;20.38;71.05;99323.47;5063530;28;20380;-76
2022/05/20 07:19:17;;;;;;;22.08;19.77;;;;;;;20.42;71.37;99326.41;5069814;28;20052;-76
2022/05/20 07:21:43;;;;;;;27.25;20.40;;;;;;;20.46;71.04;99319.28;5054205;28;20442;-76
2022/05/20 07:24:09;;;;;;;20.23;17.00;;;;;;;20.45;70.30;99313.03;5057186;28;20037;-76
2022/05/20 07:26:35;;;;;;;17.50;14.73;;;;;;;20.49;69.60;99308.59;5055499;28;20023;-76
2022/05/20 07:29:00;;;;;;;18.58;16.55;;;;;;;20.50;69.85;99310.22;5055954;28;20029;-75
2022/05/20 07:31:25;;;;;;;24.35;20.48;;;;;;;20.59;70.48;99311.13;5061502;28;20085;-75
2022/05/20 07:33:51;;;;;;;23.42;19.40;;;;;;;20.66;70.39;99308.81;5062337;28;20087;-76
2022/05/20 07:36:17;;;;;;;22.85;20.08;;;;;;;20.73;70.43;99308.38;5070021;28;20028;-75
2022/05/20 07:38:43;;;;;;;24.25;20.23;;;;;;;20.80;70.20;99304.16;5067482;28;20035;-75
2022/05/20 07:41:09;;;;;;;25.92;19.23;;;;;;;20.87;69.61;99304.56;5070623;28;20080;-76
2022/05/20 07:43:34;;;;;;;26.83;22.65;;;;;;;20.87;69.74;99312.72;5071060;28;20040;-76
2022/05/20 07:46:00;;;;;;;22.70;20.27;;;;;;;21.00;69.09;99311.06;5068493;28;20486;-76
2022/05/20 07:48:25;;;;;;;23.33;19.42;;;;;;;21.10;68.84;99318.22;5068709;28;20033;-76
2022/05/20 07:50:57;;;;;;;25.50;18.67;;;;;;;21.15;68.69;99316.19;5070788;28;20497;-76
2022/05/20 07:53:37;;;;;;;23.60;19.25;;;;;;;21.22;68.42;99310.34;5067075;28;20025;-75
2022/05/20 07:56:16;;;;;;;24.88;19.92;;;;;;;21.29;67.89;99311.53;5051392;28;20033;-76
2022/05/20 07:58:49;;;;;;;21.92;18.20;;;;;;;21.43;67.67;99311.47;5050817;28;20032;-76
2022/05/20 08:01:21;;;;;;;21.15;18.10;;;;;;;21.51;67.40;99297.94;5059956;28;20059;-76
2022/05/20 08:06:34;;;;;;;22.00;17.17;;;;;;;21.58;67.31;99297.50;5054974;28;20043;-76
2022/05/20 08:09:00;;;;;;;18.45;16.15;;;;;;;21.60;67.39;99298.03;5068588;28;20028;-76
2022/05/20 08:11:25;;;;;;;20.88;17.90;;;;;;;21.61;67.51;99294.19;5067282;28;20029;-76
2022/05/20 08:13:51;;;;;;;18.15;16.15;;;;;;;21.70;67.31;99297.75;5059271;28;20037;-76
2022/05/20 08:16:18;;;;;;;20.40;16.80;;;;;;;21.74;67.12;99285.16;5057514;28;20028;-76
2022/05/20 08:18:43;;;;;;;19.60;17.60;;;;;;;21.82;67.13;99294.50;5068181;28;20075;-76
2022/05/20 08:21:08;;;;;;;21.13;16.30;;;;;;;21.87;66.90;99286.22;5067012;28;20032;-77
2022/05/20 08:23:33;;;;;;;20.95;17.88;;;;;;;21.89;66.98;99286.69;5067690;28;20073;-75
2022/05/20 08:25:59;;;;;;;24.17;19.58;;;;;;;21.92;66.60;99286.91;5068451;28;20024;-76
2022/05/20 08:28:24;;;;;;;21.15;18.15;;;;;;;21.96;66.77;99298.75;5068758;28;20033;-76
2022/05/20 08:30:49;;;;;;;19.15;17.00;;;;;;;22.00;66.61;99297.00;5068493;28;20020;-76
2022/05/20 08:33:15;;;;;;;20.27;16.35;;;;;;;21.97;66.80;99294.13;5069041;28;20063;-76
2022/05/20 08:35:40;;;;;;;19.38;16.20;;;;;;;21.99;66.87;99300.84;5068510;28;20036;-77
2022/05/20 08:38:05;;;;;;;20.85;18.50;;;;;;;21.97;67.06;99294.94;5069840;28;20028;-76
2022/05/20 08:40:42;;;;;;;20.30;17.73;;;;;;;22.05;66.76;99296.88;5068786;28;20422;-77
2022/05/20 08:43:09;;;;;;;19.55;15.63;;;;;;;22.11;66.43;99292.91;5068234;28;20057;-76
2022/05/20 08:45:34;;;;;;;19.02;16.55;;;;;;;22.14;65.96;99294.22;5061048;28;20020;-77
2022/05/20 08:48:00;;;;;;;19.73;15.00;;;;;;;22.19;66.27;99297.56;5064840;28;20078;-77
2022/05/20 08:50:34;;;;;;;20.33;17.17;;;;;;;22.26;66.22;99289.78;5064748;28;20028;-77
2022/05/20 08:53:00;;;;;;;16.90;15.05;;;;;;;22.37;65.78;99284.84;5068657;28;20033;-77
2022/05/20 08:55:26;;;;;;;18.52;16.60;;;;;;;22.44;65.73;99281.66;5065357;28;20040;-77
2022/05/20 08:57:57;;;;;;;17.52;15.20;;;;;;;22.49;65.61;99262.50;5070977;28;20028;-77
2022/05/20 09:00:22;;;;;;;16.75;15.07;;;;;;;22.53;65.44;99256.09;5070084;28;20478;-76
2022/05/20 09:02:48;;;;;;;15.02;13.50;;;;;;;22.59;65.50;99257.59;5069492;28;20032;-77
2022/05/20 09:05:18;;;;;;;17.45;15.45;;;;;;;22.65;65.37;99252.81;5060718;28;20032;-77
2022/05/20 09:07:57;;;;;;;19.45;14.50;;;;;;;22.72;65.42;99253.13;5068722;28;20035;-76
2022/05/20 09:10:57;;;;;;;19.08;14.18;;;;;;;22.76;65.21;99244.00;5072184;28;20021;-76
2022/05/20 09:15:43;;;;;;;17.20;15.15;;;;;;;22.80;65.49;99242.22;5064458;28;20041;-76
2022/05/20 09:16:17;;;;;;;18.80;16.80;;;;;;;22.83;65.41;99230.72;5062141;28;20128;-76
2022/05/20 09:18:45;;;;;;;17.70;15.13;;;;;;;22.92;64.99;99223.38;5063707;28;20056;-77
2022/05/20 09:21:38;;;;;;;17.42;15.60;;;;;;;23.02;65.13;99211.38;5067720;28;20494;-76
2022/05/20 09:24:07;;;;;;;15.80;14.25;;;;;;;23.06;64.87;99207.66;5068346;28;20048;-76
2022/05/20 09:26:39;;;;;;;16.15;14.30;;;;;;;23.17;64.80;99213.59;5065244;28;20027;-76
2022/05/20 09:29:15;;;;;;;16.27;14.55;;;;;;;23.13;65.31;99211.84;5065054;28;20032;-76
2022/05/20 09:31:49;;;;;;;16.55;13.55;;;;;;;23.24;64.49;99194.81;5064712;28;20558;-77
2022/05/20 09:34:19;;;;;;;13.90;12.60;;;;;;;23.32;64.31;99185.84;5059509;28;20661;-76
2022/05/20 09:36:57;;;;;;;13.18;11.90;;;;;;;23.44;64.39;99185.19;5070080;28;20059;-75
2022/05/20 09:39:31;;;;;;;12.65;11.30;;;;;;;23.52;63.73;99178.94;5066715;28;20035;-75
2022/05/20 09:42:04;;;;;;;14.50;12.32;;;;;;;23.66;63.60;99176.78;5070508;28;20073;-75
2022/05/20 09:44:38;;;;;;;13.35;11.57;;;;;;;23.69;63.54;99176.97;5069850;28;20044;-74
2022/05/20 09:47:29;;;;;;;13.30;11.80;;;;;;;23.74;63.25;99171.31;5066389;28;20020;-76
2022/05/20 09:49:58;;;;;;;12.90;11.70;;;;;;;23.77;63.09;99159.75;5067523;28;20047;-75
2022/05/20 09:52:30;;;;;;;13.07;11.35;;;;;;;23.81;63.19;99159.91;5071909;28;20031;-76
2022/05/20 09:55:23;;;;;;;12.77;11.25;;;;;;;23.94;63.23;99161.59;5069492;28;20037;-75
2022/05/20 09:57:49;;;;;;;12.80;11.60;;;;;;;24.03;62.77;99164.28;5067134;28;20032;-76
2022/05/20 10:00:26;;;;;;;13.90;12.48;;;;;;;24.08;62.96;99154.03;5067166;28;20034;-76
2022/05/20 10:03:04;;;;;;;12.65;10.65;;;;;;;24.16;62.48;99142.25;5072733;28;20509;-76
2022/05/20 10:05:36;;;;;;;12.38;11.18;;;;;;;24.22;62.55;99140.16;5069316;28;20470;-77
2022/05/20 10:08:13;;;;;;;26.85;10.77;;;;;;;24.35;62.18;99133.66;5067235;28;20022;-77
2022/05/20 10:10:56;;;;;;;13.90;10.52;;;;;;;24.42;62.17;99129.25;5067888;28;20040;-75
2022/05/20 10:13:31;;;;;;;11.70;10.50;;;;;;;24.50;62.04;99122.94;5066142;28;20386;-76
2022/05/20 10:16:16;;;;;;;12.40;10.25;;;;;;;24.66;61.55;99122.34;5065780;28;20020;-77
2022/05/20 10:18:44;;;;;;;12.10;10.90;;;;;;;24.68;62.03;99120.88;5069598;28;20054;-76
2022/05/20 10:21:36;;;;;;;11.40;9.95;;;;;;;24.73;61.83;99125.31;5069545;28;20024;-76
2022/05/20 10:24:10;;;;;;;10.98;9.52;;;;;;;24.84;61.82;99126.53;5066882;28;20509;-76
2022/05/20 10:26:47;;;;;;;11.02;9.93;;;;;;;24.89;61.64;99124.41;5065251;28;20479;-77
2022/05/20 10:32:35;;;;;;;10.18;9.10;;;;;;;24.94;61.83;99118.75;5062231;28;20131;-76
2022/05/20 10:35:08;;;;;;;10.55;9.50;;;;;;;24.98;61.42;99114.19;5069677;28;20020;-75
2022/05/20 10:37:52;;;;;;;15.05;10.38;;;;;;;24.98;61.65;99119.66;5061209;28;20021;-76
2022/05/20 10:40:34;;;;;;;11.18;9.82;;;;;;;25.01;61.61;99104.53;5063595;28;20440;-76
2022/05/20 10:43:32;;;;;;;10.48;9.30;;;;;;;25.00;61.54;99092.81;5069199;28;20024;-77
2022/05/20 10:49:29;;;;;;;9.43;8.40;;;;;;;25.17;61.12;99089.88;5058797;28;20036;-75
2022/05/20 10:52:07;;;;;;;9.35;8.45;;;;;;;25.27;60.88;99078.50;5067295;28;20099;-76
2022/05/20 10:54:56;;;;;;;9.15;8.35;;;;;;;25.33;60.81;99076.38;5066812;28;20035;-77
2022/05/20 10:57:41;;;;;;;10.43;8.00;;;;;;;25.44;60.78;99069.34;5063216;28;20056;-77
2022/05/20 11:00:21;;;;;;;9.63;8.35;;;;;;;25.56;60.47;99050.22;5063291;28;20055;-77
2022/05/20 11:03:28;;;;;;;8.27;7.47;;;;;;;25.68;60.21;99052.16;5062254;28;20071;-79
2022/05/20 11:06:21;;;;;;;9.00;8.20;;;;;;;25.81;59.68;99061.94;5062175;28;20044;-79
2022/05/20 11:09:08;;;;;;;7.30;6.70;;;;;;;25.94;59.19;99053.41;5063515;28;20083;-80
2022/05/20 11:11:57;;;;;;;10.27;7.97;;;;;;;25.95;59.33;99048.69;5057642;28;20036;-78
2022/05/20 11:14:45;;;;;;;7.43;6.68;;;;;;;25.95;59.32;99054.16;5066255;28;20516;-78
2022/05/20 11:17:45;;;;;;;7.93;7.22;;;;;;;25.92;59.37;99049.41;5062270;28;20028;-78
2022/05/20 11:20:35;;;;;;;7.03;6.43;;;;;;;25.87;59.70;99046.88;5064419;28;20032;-78
2022/05/20 11:23:33;;;;;;;8.35;6.65;;;;;;;25.85;59.51;99035.50;5062691;28;20442;-78
2022/05/20 11:26:08;;;;;;;7.85;6.88;;;;;;;25.81;59.47;99024.47;5060214;28;20556;-78
2022/05/20 11:28:53;;;;;;;6.88;6.28;;;;;;;25.87;59.44;99003.13;5064809;28;20107;-77
2022/05/20 11:31:44;;;;;;;7.82;7.13;;;;;;;25.98;59.02;98998.78;5082458;28;20547;-78
2022/05/20 11:34:38;;;;;;;7.38;6.78;;;;;;;26.18;58.81;98999.78;5063081;28;20093;-78
2022/05/20 11:37:31;;;;;;;8.88;6.43;;;;;;;26.41;58.43;98987.94;5054885;28;20024;-79
2022/05/20 11:40:29;;;;;;;6.50;5.85;;;;;;;26.63;58.10;98976.41;5066278;28;20066;-77
2022/05/20 11:43:21;;;;;;;7.65;5.60;;;;;;;26.87;57.61;98967.28;5051735;28;20116;-78
2022/05/20 11:46:20;;;;;;;6.72;5.95;;;;;;;27.12;57.14;98965.16;5063049;28;20124;-77
2022/05/20 11:49:03;;;;;;;6.53;5.93;;;;;;;27.28;56.81;98968.72;5067535;28;20095;-77
2022/05/20 11:51:51;;;;;;;7.25;6.45;;;;;;;27.22;57.04;98970.09;5065692;28;20033;-78
2022/05/20 11:54:20;;;;;;;6.20;5.78;;;;;;;27.16;57.29;98966.06;5063170;28;20033;-78
2022/05/20 11:56:58;;;;;;;7.40;6.40;;;;;;;27.16;57.32;98958.63;5056571;28;20029;-78
2022/05/20 11:59:53;;;;;;;6.80;6.10;;;;;;;27.19;57.33;98951.66;5062463;28;20028;-79
2022/05/20 12:02:19;;;;;;;7.25;6.57;;;;;;;27.41;56.88;98943.56;5055167;28;20127;-80
2022/05/20 12:04:48;;;;;;;6.40;5.82;;;;;;;27.64;56.17;98940.97;5064692;28;20636;-79
2022/05/20 12:07:21;;;;;;;7.18;6.13;;;;;;;27.65;56.20;98937.09;5066767;28;20092;-78